sensor_id;sensor_type;location;lat;lon;timestamp;pressure;altitude;pressure_sealevel;temperature;humidity
10806;BME280;5455;53.224;6.000;2022-08-04T00:00:06;101308.31;;;21.45;96.70
10806;BME280;5455;53.224;6.000;2022-08-04T00:02:44;101319.94;;;21.47;96.79
10806;BME280;5455;53.224;6.000;2022-08-04T00:05:25;101317.13;;;21.47;96.79
10806;BME280;5455;53.224;6.000;2022-08-04T00:08:18;101307.56;;;21.45;96.84
10806;BME280;5455;53.224;6.000;2022-08-04T00:10:52;101309.50;;;21.48;96.66
10806;BME280;5455;53.224;6.000;2022-08-04T00:13:29;101306.69;;;21.48;96.74
10806;BME280;5455;53.224;6.000;2022-08-04T00:15:58;101305.91;;;21.47;96.29
10806;BME280;5455;53.224;6.000;2022-08-04T00:18:51;101305.50;;;21.45;96.46
10806;BME280;5455;53.224;6.000;2022-08-04T00:21:22;101299.91;;;21.45;96.70
10806;BME280;5455;53.224;6.000;2022-08-04T00:23:51;101302.78;;;21.41;96.48
10806;BME280;5455;53.224;6.000;2022-08-04T00:26:39;101299.53;;;21.43;96.59
10806;BME280;5455;53.224;6.000;2022-08-04T00:29:06;101293.56;;;21.41;96.56
10806;BME280;5455;53.224;6.000;2022-08-04T00:31:34;101290.38;;;21.39;96.70
10806;BME280;5455;53.224;6.000;2022-08-04T00:34:24;101287.25;;;21.33;96.91
10806;BME280;5455;53.224;6.000;2022-08-04T00:36:53;101287.63;;;21.35;96.90
10806;BME280;5455;53.224;6.000;2022-08-04T00:39:21;101289.66;;;21.35;96.71
10806;BME280;5455;53.224;6.000;2022-08-04T01:00:18;101291.91;;;21.17;97.52
10806;BME280;5455;53.224;6.000;2022-08-04T01:05:51;101295.91;;;21.16;97.75
10806;BME280;5455;53.224;6.000;2022-08-04T01:08:48;101285.53;;;21.13;97.64
10806;BME280;5455;53.224;6.000;2022-08-04T01:16:51;101280.34;;;21.11;97.96
10806;BME280;5455;53.224;6.000;2022-08-04T01:30:25;101265.88;;;21.13;97.07
10806;BME280;5455;53.224;6.000;2022-08-04T01:33:01;101258.63;;;21.15;97.14
10806;BME280;5455;53.224;6.000;2022-08-04T01:35:35;101263.84;;;21.17;97.11
10806;BME280;5455;53.224;6.000;2022-08-04T01:38:34;101263.00;;;21.20;96.99
10806;BME280;5455;53.224;6.000;2022-08-04T01:41:05;101257.06;;;21.14;97.13
10806;BME280;5455;53.224;6.000;2022-08-04T01:43:34;101263.84;;;21.17;96.79
10806;BME280;5455;53.224;6.000;2022-08-04T01:46:10;101265.47;;;21.14;97.21
10806;BME280;5455;53.224;6.000;2022-08-04T01:48:38;101271.50;;;21.13;97.32
10806;BME280;5455;53.224;6.000;2022-08-04T01:51:07;101267.53;;;21.10;97.12
10806;BME280;5455;53.224;6.000;2022-08-04T01:53:40;101275.53;;;21.12;97.13
10806;BME280;5455;53.224;6.000;2022-08-04T01:56:10;101283.16;;;21.11;96.95
10806;BME280;5455;53.224;6.000;2022-08-04T01:58:39;101274.34;;;21.09;96.87
10806;BME280;5455;53.224;6.000;2022-08-04T02:01:09;101273.94;;;21.07;96.77
10806;BME280;5455;53.224;6.000;2022-08-04T02:03:40;101265.63;;;21.00;96.43
10806;BME280;5455;53.224;6.000;2022-08-04T02:06:43;101260.84;;;20.97;97.03
10806;BME280;5455;53.224;6.000;2022-08-04T02:09:48;101254.91;;;20.92;97.02
10806;BME280;5455;53.224;6.000;2022-08-04T02:12:24;101259.84;;;20.84;97.77
10806;BME280;5455;53.224;6.000;2022-08-04T02:15:03;101265.81;;;20.86;97.86
10806;BME280;5455;53.224;6.000;2022-08-04T02:20:16;101267.94;;;20.75;98.32
10806;BME280;5455;53.224;6.000;2022-08-04T02:23:09;101261.94;;;20.73;98.27
10806;BME280;5455;53.224;6.000;2022-08-04T02:25:41;101265.19;;;20.71;98.83
10806;BME280;5455;53.224;6.000;2022-08-04T02:28:21;101265.22;;;20.68;98.64
10806;BME280;5455;53.224;6.000;2022-08-04T02:33:42;101257.25;;;20.66;98.89
10806;BME280;5455;53.224;6.000;2022-08-04T02:36:14;101262.47;;;20.64;98.80
10806;BME280;5455;53.224;6.000;2022-08-04T02:41:19;101262.13;;;20.59;99.30
10806;BME280;5455;53.224;6.000;2022-08-04T02:43:48;101253.38;;;20.53;99.90
10806;BME280;5455;53.224;6.000;2022-08-04T02:46:20;101257.38;;;20.52;100.00
10806;BME280;5455;53.224;6.000;2022-08-04T02:48:49;101260.63;;;20.51;100.00
10806;BME280;5455;53.224;6.000;2022-08-04T02:51:21;101261.03;;;20.49;100.00
10806;BME280;5455;53.224;6.000;2022-08-04T02:53:52;101260.59;;;20.54;100.00
10806;BME280;5455;53.224;6.000;2022-08-04T02:56:21;101263.00;;;20.52;100.00
10806;BME280;5455;53.224;6.000;2022-08-04T02:58:52;101247.81;;;20.50;100.00
10806;BME280;5455;53.224;6.000;2022-08-04T03:01:21;101254.25;;;20.47;100.00
10806;BME280;5455;53.224;6.000;2022-08-04T03:21:14;101241.50;;;20.42;100.00
10806;BME280;5455;53.224;6.000;2022-08-04T03:41:32;101222.75;;;20.36;100.00
10806;BME280;5455;53.224;6.000;2022-08-04T03:53:12;101218.34;;;20.38;100.00
10806;BME280;5455;53.224;6.000;2022-08-04T04:13:49;101214.84;;;20.27;100.00
10806;BME280;5455;53.224;6.000;2022-08-04T04:27:36;101212.66;;;20.45;100.00
10806;BME280;5455;53.224;6.000;2022-08-04T04:30:15;101212.56;;;20.52;100.00
10806;BME280;5455;53.224;6.000;2022-08-04T04:35:42;101204.06;;;20.59;100.00
10806;BME280;5455;53.224;6.000;2022-08-04T04:44:32;101203.44;;;20.78;100.00
10806;BME280;5455;53.224;6.000;2022-08-04T04:52:46;101204.56;;;20.84;100.00
10806;BME280;5455;53.224;6.000;2022-08-04T04:55:25;101201.28;;;20.89;100.00
10806;BME280;5455;53.224;6.000;2022-08-04T04:57:57;101196.84;;;20.92;100.00
10806;BME280;5455;53.224;6.000;2022-08-04T05:00:49;101195.53;;;21.00;100.00
10806;BME280;5455;53.224;6.000;2022-08-04T05:09:26;101196.75;;;21.29;100.00
10806;BME280;5455;53.224;6.000;2022-08-04T05:15:15;101196.06;;;21.45;100.00
10806;BME280;5455;53.224;6.000;2022-08-04T05:17:52;101195.97;;;21.52;100.00
10806;BME280;5455;53.224;6.000;2022-08-04T05:20:24;101194.63;;;21.60;100.00
10806;BME280;5455;53.224;6.000;2022-08-04T05:22:56;101187.75;;;21.65;100.00
10806;BME280;5455;53.224;6.000;2022-08-04T05:25:44;101207.22;;;21.75;100.00
10806;BME280;5455;53.224;6.000;2022-08-04T05:28:37;101200.69;;;21.82;100.00
10806;BME280;5455;53.224;6.000;2022-08-04T05:31:10;101205.00;;;21.90;99.80
10806;BME280;5455;53.224;6.000;2022-08-04T05:33:54;101206.47;;;21.98;99.04
10806;BME280;5455;53.224;6.000;2022-08-04T05:36:37;101203.44;;;22.09;98.40
10806;BME280;5455;53.224;6.000;2022-08-04T05:39:12;101216.63;;;22.12;98.05
10806;BME280;5455;53.224;6.000;2022-08-04T05:41:42;101219.38;;;22.15;98.55
10806;BME280;5455;53.224;6.000;2022-08-04T05:44:22;101222.06;;;22.22;99.22
10806;BME280;5455;53.224;6.000;2022-08-04T05:46:54;101222.00;;;22.26;99.36
10806;BME280;5455;53.224;6.000;2022-08-04T05:49:22;101221.84;;;22.33;99.39
10806;BME280;5455;53.224;6.000;2022-08-04T05:51:51;101217.59;;;22.44;99.54
10806;BME280;5455;53.224;6.000;2022-08-04T05:54:20;101211.78;;;22.55;99.75
10806;BME280;5455;53.224;6.000;2022-08-04T05:56:48;101218.50;;;22.81;99.62
10806;BME280;5455;53.224;6.000;2022-08-04T05:59:18;101207.72;;;22.95;98.43
10806;BME280;5455;53.224;6.000;2022-08-04T06:01:47;101221.94;;;23.08;97.25
10806;BME280;5455;53.224;6.000;2022-08-04T06:04:32;101220.91;;;23.18;97.24
10806;BME280;5455;53.224;6.000;2022-08-04T06:07:00;101211.84;;;23.27;96.77
10806;BME280;5455;53.224;6.000;2022-08-04T06:09:27;101209.75;;;23.31;96.59
10806;BME280;5455;53.224;6.000;2022-08-04T06:11:59;101214.94;;;23.32;96.54
10806;BME280;5455;53.224;6.000;2022-08-04T06:14:50;101207.63;;;23.35;96.42
10806;BME280;5455;53.224;6.000;2022-08-04T06:17:31;101211.31;;;23.32;96.47
10806;BME280;5455;53.224;6.000;2022-08-04T06:20:20;101221.25;;;23.40;96.80
10806;BME280;5455;53.224;6.000;2022-08-04T06:22:54;101209.78;;;23.47;96.49
10806;BME280;5455;53.224;6.000;2022-08-04T06:25:27;101222.50;;;23.55;96.28
10806;BME280;5455;53.224;6.000;2022-08-04T06:27:56;101212.28;;;23.61;95.98
10806;BME280;5455;53.224;6.000;2022-08-04T06:30:27;101216.75;;;23.75;95.51
10806;BME280;5455;53.224;6.000;2022-08-04T06:32:57;101215.06;;;23.77;94.39
10806;BME280;5455;53.224;6.000;2022-08-04T06:35:32;101215.06;;;23.77;93.67
10806;BME280;5455;53.224;6.000;2022-08-04T06:38:00;101224.78;;;23.76;93.33
10806;BME280;5455;53.224;6.000;2022-08-04T06:40:30;101224.50;;;23.71;93.00
10806;BME280;5455;53.224;6.000;2022-08-04T06:43:01;101216.50;;;23.69;93.20
10806;BME280;5455;53.224;6.000;2022-08-04T06:45:30;101221.34;;;23.69;93.56
10806;BME280;5455;53.224;6.000;2022-08-04T06:47:57;101217.81;;;23.65;93.74
10806;BME280;5455;53.224;6.000;2022-08-04T06:50:26;101227.03;;;23.65;94.49
10806;BME280;5455;53.224;6.000;2022-08-04T06:53:14;101223.59;;;23.74;95.11
10806;BME280;5455;53.224;6.000;2022-08-04T06:55:42;101224.41;;;23.90;95.31
10806;BME280;5455;53.224;6.000;2022-08-04T06:58:11;101231.53;;;24.11;94.37
10806;BME280;5455;53.224;6.000;2022-08-04T07:00:40;101237.59;;;24.26;93.55
10806;BME280;5455;53.224;6.000;2022-08-04T07:03:07;101248.69;;;24.33;92.61
10806;BME280;5455;53.224;6.000;2022-08-04T07:05:35;101237.47;;;24.45;92.53
10806;BME280;5455;53.224;6.000;2022-08-04T07:08:03;101249.31;;;24.53;92.01
10806;BME280;5455;53.224;6.000;2022-08-04T07:10:30;101235.03;;;24.60;91.95
10806;BME280;5455;53.224;6.000;2022-08-04T07:12:59;101232.94;;;24.77;91.32
10806;BME280;5455;53.224;6.000;2022-08-04T07:15:27;101233.78;;;24.90;90.38
10806;BME280;5455;53.224;6.000;2022-08-04T07:17:56;101239.13;;;25.13;89.85
10806;BME280;5455;53.224;6.000;2022-08-04T07:20:28;101236.75;;;25.24;88.00
10806;BME280;5455;53.224;6.000;2022-08-04T07:23:05;101236.31;;;25.26;87.55
10806;BME280;5455;53.224;6.000;2022-08-04T07:25:34;101243.44;;;25.17;87.03
10806;BME280;5455;53.224;6.000;2022-08-04T07:28:26;101245.13;;;25.02;86.92
10806;BME280;5455;53.224;6.000;2022-08-04T07:30:56;101251.06;;;24.92;86.59
10806;BME280;5455;53.224;6.000;2022-08-04T07:33:24;101244.72;;;24.88;86.86
10806;BME280;5455;53.224;6.000;2022-08-04T07:35:55;101251.38;;;24.81;87.20
10806;BME280;5455;53.224;6.000;2022-08-04T07:38:38;101240.16;;;24.78;87.53
10806;BME280;5455;53.224;6.000;2022-08-04T07:41:20;101250.19;;;24.79;88.28
10806;BME280;5455;53.224;6.000;2022-08-04T07:44:05;101240.44;;;24.83;88.59
10806;BME280;5455;53.224;6.000;2022-08-04T07:46:33;101244.72;;;24.88;87.50
10806;BME280;5455;53.224;6.000;2022-08-04T07:49:00;101240.75;;;24.85;86.86
10806;BME280;5455;53.224;6.000;2022-08-04T07:51:28;101240.75;;;24.85;86.83
10806;BME280;5455;53.224;6.000;2022-08-04T07:53:56;101244.97;;;24.93;86.94
10806;BME280;5455;53.224;6.000;2022-08-04T07:56:25;101245.31;;;24.95;86.62
10806;BME280;5455;53.224;6.000;2022-08-04T07:58:53;101246.78;;;25.00;86.88
10806;BME280;5455;53.224;6.000;2022-08-04T08:01:22;101244.53;;;25.07;87.25
10806;BME280;5455;53.224;6.000;2022-08-04T08:03:53;101245.56;;;25.13;87.29
10806;BME280;5455;53.224;6.000;2022-08-04T08:06:22;101237.56;;;25.25;86.99
10806;BME280;5455;53.224;6.000;2022-08-04T08:09:02;101241.50;;;25.40;85.84
10806;BME280;5455;53.224;6.000;2022-08-04T08:11:47;101254.56;;;25.50;84.55
10806;BME280;5455;53.224;6.000;2022-08-04T08:14:34;101246.41;;;25.64;83.65
10806;BME280;5455;53.224;6.000;2022-08-04T08:17:02;101252.59;;;25.85;82.93
10806;BME280;5455;53.224;6.000;2022-08-04T08:19:30;101258.13;;;25.88;81.81
10806;BME280;5455;53.224;6.000;2022-08-04T08:21:58;101247.81;;;25.94;81.79
10806;BME280;5455;53.224;6.000;2022-08-04T08:24:28;101243.09;;;25.91;80.21
10806;BME280;5455;53.224;6.000;2022-08-04T08:26:56;101252.91;;;25.99;80.87
10806;BME280;5455;53.224;6.000;2022-08-04T08:29:24;101248.34;;;26.14;80.91
10806;BME280;5455;53.224;6.000;2022-08-04T08:31:52;101259.38;;;26.47;80.22
10806;BME280;5455;53.224;6.000;2022-08-04T08:34:27;101256.28;;;26.75;78.45
10806;BME280;5455;53.224;6.000;2022-08-04T08:37:01;101249.41;;;27.07;77.07
10806;BME280;5455;53.224;6.000;2022-08-04T08:39:40;101251.47;;;27.37;75.16
10806;BME280;5455;53.224;6.000;2022-08-04T08:45:04;101257.75;;;27.63;74.42
10806;BME280;5455;53.224;6.000;2022-08-04T08:56:11;101259.94;;;28.08;72.40
10806;BME280;5455;53.224;6.000;2022-08-04T08:59:25;101262.31;;;28.19;71.12
10806;BME280;5455;53.224;6.000;2022-08-04T09:02:02;101269.44;;;28.41;70.99
10806;BME280;5455;53.224;6.000;2022-08-04T09:12:55;101281.75;;;28.66;67.23
10806;BME280;5455;53.224;6.000;2022-08-04T09:15:32;101280.19;;;28.65;67.72
10806;BME280;5455;53.224;6.000;2022-08-04T09:18:15;101278.59;;;28.73;67.07
10806;BME280;5455;53.224;6.000;2022-08-04T09:20:59;101276.06;;;28.57;65.74
10806;BME280;5455;53.224;6.000;2022-08-04T09:23:38;101275.72;;;28.55;66.73
10806;BME280;5455;53.224;6.000;2022-08-04T09:29:16;101273.38;;;28.35;65.88
10806;BME280;5455;53.224;6.000;2022-08-04T09:31:53;101272.25;;;28.32;64.62
10806;BME280;5455;53.224;6.000;2022-08-04T09:37:54;101282.34;;;28.33;62.42
10806;BME280;5455;53.224;6.000;2022-08-04T09:40:32;101277.31;;;28.37;63.22
10806;BME280;5455;53.224;6.000;2022-08-04T09:46:25;101288.00;;;28.42;61.85
10806;BME280;5455;53.224;6.000;2022-08-04T09:57:56;101294.47;;;29.07;60.10
10806;BME280;5455;53.224;6.000;2022-08-04T10:00:31;101300.00;;;29.10;59.40
10806;BME280;5455;53.224;6.000;2022-08-04T10:03:09;101301.25;;;29.27;58.86
10806;BME280;5455;53.224;6.000;2022-08-04T10:06:09;101312.63;;;29.09;57.70
10806;BME280;5455;53.224;6.000;2022-08-04T10:15:01;101308.22;;;28.54;55.29
10806;BME280;5455;53.224;6.000;2022-08-04T10:18:05;101308.47;;;28.10;54.91
10806;BME280;5455;53.224;6.000;2022-08-04T10:27:00;101320.00;;;28.34;54.23
10806;BME280;5455;53.224;6.000;2022-08-04T10:29:37;101313.53;;;28.33;53.00
10806;BME280;5455;53.224;6.000;2022-08-04T10:32:16;101309.31;;;28.56;53.16
10806;BME280;5455;53.224;6.000;2022-08-04T10:40:39;101316.25;;;29.10;51.60
10806;BME280;5455;53.224;6.000;2022-08-04T10:43:24;101326.44;;;29.52;50.60
10806;BME280;5455;53.224;6.000;2022-08-04T10:46:03;101323.31;;;29.32;48.80
10806;BME280;5455;53.224;6.000;2022-08-04T10:51:29;101328.41;;;29.19;49.35
10806;BME280;5455;53.224;6.000;2022-08-04T10:54:52;101332.53;;;28.91;49.82
10806;BME280;5455;53.224;6.000;2022-08-04T11:00:03;101335.63;;;29.20;49.71
10806;BME280;5455;53.224;6.000;2022-08-04T11:08:20;101341.63;;;29.40;47.78
10806;BME280;5455;53.224;6.000;2022-08-04T11:13:41;101340.09;;;29.03;48.18
10806;BME280;5455;53.224;6.000;2022-08-04T11:16:18;101341.53;;;28.98;48.40
10806;BME280;5455;53.224;6.000;2022-08-04T11:18:57;101340.56;;;29.02;48.82
10806;BME280;5455;53.224;6.000;2022-08-04T11:21:34;101341.69;;;28.95;46.95
10806;BME280;5455;53.224;6.000;2022-08-04T11:27:00;101354.28;;;29.12;46.84
10806;BME280;5455;53.224;6.000;2022-08-04T11:29:48;101354.44;;;29.09;46.50
10806;BME280;5455;53.224;6.000;2022-08-04T11:32:19;101357.59;;;29.11;46.98
10806;BME280;5455;53.224;6.000;2022-08-04T11:34:56;101363.56;;;29.22;46.75
10806;BME280;5455;53.224;6.000;2022-08-04T11:37:35;101369.75;;;29.29;46.02
10806;BME280;5455;53.224;6.000;2022-08-04T11:40:23;101359.03;;;28.97;46.94
10806;BME280;5455;53.224;6.000;2022-08-04T11:43:01;101376.06;;;28.97;47.52
10806;BME280;5455;53.224;6.000;2022-08-04T11:45:35;101373.22;;;29.06;47.24
10806;BME280;5455;53.224;6.000;2022-08-04T11:48:09;101364.09;;;28.84;47.27
10806;BME280;5455;53.224;6.000;2022-08-04T11:50:42;101369.59;;;28.87;48.07
10806;BME280;5455;53.224;6.000;2022-08-04T11:53:17;101371.81;;;29.02;48.01
10806;BME280;5455;53.224;6.000;2022-08-04T11:55:48;101377.50;;;29.38;47.53
10806;BME280;5455;53.224;6.000;2022-08-04T11:58:35;101386.22;;;29.76;47.78
10806;BME280;5455;53.224;6.000;2022-08-04T12:09:27;101403.69;;;29.33;46.59
10806;BME280;5455;53.224;6.000;2022-08-04T12:12:17;101410.94;;;29.43;46.39
10806;BME280;5455;53.224;6.000;2022-08-04T12:15:01;101414.69;;;29.67;45.13
10806;BME280;5455;53.224;6.000;2022-08-04T12:17:34;101418.31;;;29.68;44.78
10806;BME280;5455;53.224;6.000;2022-08-04T12:20:22;101415.53;;;29.40;45.43
10806;BME280;5455;53.224;6.000;2022-08-04T12:23:14;101419.47;;;29.43;45.00
10806;BME280;5455;53.224;6.000;2022-08-04T12:25:46;101428.53;;;29.74;42.62
10806;BME280;5455;53.224;6.000;2022-08-04T12:28:47;101433.19;;;30.14;43.58
10806;BME280;5455;53.224;6.000;2022-08-04T12:31:52;101434.97;;;30.44;43.49
10806;BME280;5455;53.224;6.000;2022-08-04T12:34:33;101433.47;;;30.57;43.58
10806;BME280;5455;53.224;6.000;2022-08-04T12:39:50;101433.41;;;30.43;43.59
10806;BME280;5455;53.224;6.000;2022-08-04T12:42:46;101447.88;;;30.54;42.08
10806;BME280;5455;53.224;6.000;2022-08-04T12:45:25;101443.41;;;30.62;42.17
10806;BME280;5455;53.224;6.000;2022-08-04T12:47:56;101443.28;;;30.80;41.94
10806;BME280;5455;53.224;6.000;2022-08-04T12:50:24;101441.22;;;30.81;41.90
10806;BME280;5455;53.224;6.000;2022-08-04T12:52:55;101454.78;;;30.86;41.45
10806;BME280;5455;53.224;6.000;2022-08-04T12:55:30;101456.38;;;31.10;41.86
10806;BME280;5455;53.224;6.000;2022-08-04T12:58:01;101454.25;;;30.73;41.78
10806;BME280;5455;53.224;6.000;2022-08-04T13:00:33;101462.53;;;30.94;42.87
10806;BME280;5455;53.224;6.000;2022-08-04T13:03:11;101462.75;;;30.82;43.03
10806;BME280;5455;53.224;6.000;2022-08-04T13:05:41;101464.81;;;30.81;43.48
10806;BME280;5455;53.224;6.000;2022-08-04T13:08:10;101470.63;;;30.63;43.66
10806;BME280;5455;53.224;6.000;2022-08-04T13:10:44;101466.81;;;30.24;43.75
10806;BME280;5455;53.224;6.000;2022-08-04T13:13:16;101481.53;;;30.23;44.55
10806;BME280;5455;53.224;6.000;2022-08-04T13:15:57;101476.97;;;30.16;43.87
10806;BME280;5455;53.224;6.000;2022-08-04T13:18:27;101464.03;;;30.06;42.42
10806;BME280;5455;53.224;6.000;2022-08-04T13:21:20;101478.47;;;30.35;42.63
10806;BME280;5455;53.224;6.000;2022-08-04T13:24:15;101474.31;;;30.78;40.86
10806;BME280;5455;53.224;6.000;2022-08-04T13:27:03;101477.91;;;31.11;38.84
10806;BME280;5455;53.224;6.000;2022-08-04T13:29:43;101478.47;;;30.68;40.14
10806;BME280;5455;53.224;6.000;2022-08-04T13:32:27;101478.13;;;30.51;43.83
10806;BME280;5455;53.224;6.000;2022-08-04T13:34:56;101481.22;;;30.63;46.78
10806;BME280;5455;53.224;6.000;2022-08-04T13:37:33;101472.94;;;29.90;50.10
10806;BME280;5455;53.224;6.000;2022-08-04T13:40:07;101462.22;;;29.67;52.84
10806;BME280;5455;53.224;6.000;2022-08-04T13:42:36;101462.41;;;29.36;52.93
10806;BME280;5455;53.224;6.000;2022-08-04T13:45:06;101457.50;;;29.45;54.50
10806;BME280;5455;53.224;6.000;2022-08-04T13:47:36;101472.81;;;29.39;54.13
10806;BME280;5455;53.224;6.000;2022-08-04T13:50:25;101458.28;;;29.01;57.16
10806;BME280;5455;53.224;6.000;2022-08-04T13:52:55;101463.38;;;28.57;56.52
10806;BME280;5455;53.224;6.000;2022-08-04T13:55:26;101453.28;;;28.56;58.12
10806;BME280;5455;53.224;6.000;2022-08-04T13:58:08;101458.88;;;28.77;58.45
10806;BME280;5455;53.224;6.000;2022-08-04T14:00:41;101458.88;;;28.77;57.21
10806;BME280;5455;53.224;6.000;2022-08-04T14:03:09;101460.03;;;28.49;57.64
10806;BME280;5455;53.224;6.000;2022-08-04T14:06:12;101456.09;;;28.47;58.79
10806;BME280;5455;53.224;6.000;2022-08-04T14:11:38;101458.53;;;28.75;57.32
10806;BME280;5455;53.224;6.000;2022-08-04T14:14:27;101460.00;;;28.89;55.43
10806;BME280;5455;53.224;6.000;2022-08-04T14:17:16;101462.16;;;28.67;56.03
10806;BME280;5455;53.224;6.000;2022-08-04T14:19:56;101466.66;;;28.55;56.15
10806;BME280;5455;53.224;6.000;2022-08-04T14:35:58;101457.69;;;27.64;60.60
10806;BME280;5455;53.224;6.000;2022-08-04T14:41:15;101454.22;;;27.60;58.23
10806;BME280;5455;53.224;6.000;2022-08-04T14:46:18;101473.38;;;27.56;54.88
10806;BME280;5455;53.224;6.000;2022-08-04T14:49:05;101471.78;;;27.77;53.65
10806;BME280;5455;53.224;6.000;2022-08-04T14:51:52;101471.66;;;27.59;52.02
10806;BME280;5455;53.224;6.000;2022-08-04T14:54:33;101470.44;;;27.60;50.74
10806;BME280;5455;53.224;6.000;2022-08-04T14:57:03;101468.38;;;27.60;50.21
10806;BME280;5455;53.224;6.000;2022-08-04T14:59:42;101464.69;;;27.72;50.62
10806;BME280;5455;53.224;6.000;2022-08-04T15:02:26;101472.84;;;27.92;49.79
10806;BME280;5455;53.224;6.000;2022-08-04T15:04:56;101464.28;;;27.61;49.11
10806;BME280;5455;53.224;6.000;2022-08-04T15:07:23;101469.44;;;27.75;50.10
10806;BME280;5455;53.224;6.000;2022-08-04T15:09:51;101465.88;;;27.84;48.59
10806;BME280;5455;53.224;6.000;2022-08-04T15:12:18;101469.69;;;27.68;48.71
10806;BME280;5455;53.224;6.000;2022-08-04T15:14:47;101462.78;;;27.48;48.28
10806;BME280;5455;53.224;6.000;2022-08-04T15:17:14;101461.91;;;27.81;48.54
10806;BME280;5455;53.224;6.000;2022-08-04T15:19:56;101451.44;;;27.69;48.92
10806;BME280;5455;53.224;6.000;2022-08-04T15:22:24;101449.25;;;27.73;48.58
10806;BME280;5455;53.224;6.000;2022-08-04T15:24:51;101461.75;;;27.85;48.25
10806;BME280;5455;53.224;6.000;2022-08-04T15:27:27;101460.38;;;27.89;47.53
10806;BME280;5455;53.224;6.000;2022-08-04T15:30:01;101463.28;;;27.77;47.64
10806;BME280;5455;53.224;6.000;2022-08-04T15:32:31;101464.13;;;27.86;48.45
10806;BME280;5455;53.224;6.000;2022-08-04T15:35:10;101463.34;;;28.08;46.92
10806;BME280;5455;53.224;6.000;2022-08-04T15:45:59;101476.66;;;27.98;46.69
10806;BME280;5455;53.224;6.000;2022-08-04T15:48:47;101465.91;;;27.93;46.47
10806;BME280;5455;53.224;6.000;2022-08-04T15:51:24;101467.97;;;27.92;47.67
10806;BME280;5455;53.224;6.000;2022-08-04T15:58:56;101474.44;;;27.50;48.27
10806;BME280;5455;53.224;6.000;2022-08-04T16:01:23;101461.56;;;27.36;49.31
10806;BME280;5455;53.224;6.000;2022-08-04T16:03:52;101478.13;;;27.59;48.70
10806;BME280;5455;53.224;6.000;2022-08-04T16:09:03;101483.41;;;27.70;47.63
10806;BME280;5455;53.224;6.000;2022-08-04T16:11:36;101488.59;;;27.71;47.25
10806;BME280;5455;53.224;6.000;2022-08-04T16:14:07;101497.25;;;27.68;47.16
10806;BME280;5455;53.224;6.000;2022-08-04T16:21:51;101493.56;;;27.24;48.99
10806;BME280;5455;53.224;6.000;2022-08-04T16:26:49;101494.88;;;27.45;47.84
10806;BME280;5455;53.224;6.000;2022-08-04T16:34:33;101503.00;;;27.08;49.34
10806;BME280;5455;53.224;6.000;2022-08-04T16:37:17;101504.75;;;26.93;50.18
10806;BME280;5455;53.224;6.000;2022-08-04T16:39:46;101496.66;;;27.04;50.03
10806;BME280;5455;53.224;6.000;2022-08-04T16:48:01;101509.50;;;26.96;50.49
10806;BME280;5455;53.224;6.000;2022-08-04T16:50:30;101507.72;;;26.64;51.61
10806;BME280;5455;53.224;6.000;2022-08-04T16:52:58;101518.56;;;26.53;52.17
10806;BME280;5455;53.224;6.000;2022-08-04T16:55:27;101510.44;;;26.43;52.63
10806;BME280;5455;53.224;6.000;2022-08-04T16:57:56;101515.28;;;26.29;53.17
10806;BME280;5455;53.224;6.000;2022-08-04T17:00:50;101518.34;;;26.22;53.88
10806;BME280;5455;53.224;6.000;2022-08-04T17:03:18;101522.53;;;26.43;54.25
10806;BME280;5455;53.224;6.000;2022-08-04T17:05:45;101515.66;;;26.82;52.58
10806;BME280;5455;53.224;6.000;2022-08-04T17:08:12;101514.81;;;26.69;51.53
10806;BME280;5455;53.224;6.000;2022-08-04T17:10:56;101526.28;;;26.40;52.53
10806;BME280;5455;53.224;6.000;2022-08-04T17:13:31;101524.59;;;26.55;52.51
10806;BME280;5455;53.224;6.000;2022-08-04T17:16:18;101522.41;;;26.21;53.34
10806;BME280;5455;53.224;6.000;2022-08-04T17:18:51;101524.91;;;25.91;55.43
10806;BME280;5455;53.224;6.000;2022-08-04T17:21:29;101526.75;;;25.97;54.75
10806;BME280;5455;53.224;6.000;2022-08-04T17:23:59;101522.56;;;25.89;55.11
10806;BME280;5455;53.224;6.000;2022-08-04T17:26:44;101529.56;;;25.56;54.65
10806;BME280;5455;53.224;6.000;2022-08-04T17:29:23;101532.72;;;25.42;55.85
10806;BME280;5455;53.224;6.000;2022-08-04T17:32:16;101523.72;;;25.02;57.08
10806;BME280;5455;53.224;6.000;2022-08-04T17:34:54;101511.50;;;24.73;57.51
10806;BME280;5455;53.224;6.000;2022-08-04T17:37:23;101519.25;;;24.52;57.66
10806;BME280;5455;53.224;6.000;2022-08-04T17:40:13;101513.59;;;24.36;59.28
10806;BME280;5455;53.224;6.000;2022-08-04T17:42:44;101519.94;;;24.40;59.31
10806;BME280;5455;53.224;6.000;2022-08-04T17:45:14;101512.97;;;24.29;58.84
10806;BME280;5455;53.224;6.000;2022-08-04T17:48:06;101520.78;;;24.21;59.26
10806;BME280;5455;53.224;6.000;2022-08-04T17:50:35;101532.84;;;24.22;58.91
10806;BME280;5455;53.224;6.000;2022-08-04T17:53:09;101532.63;;;24.12;59.50
10806;BME280;5455;53.224;6.000;2022-08-04T17:55:43;101529.31;;;23.98;59.93
10806;BME280;5455;53.224;6.000;2022-08-04T17:58:19;101529.22;;;24.01;61.11
10806;BME280;5455;53.224;6.000;2022-08-04T18:01:00;101518.41;;;24.00;62.29
10806;BME280;5455;53.224;6.000;2022-08-04T18:03:48;101526.84;;;23.80;62.73
10806;BME280;5455;53.224;6.000;2022-08-04T18:06:35;101524.84;;;23.61;64.05
10806;BME280;5455;53.224;6.000;2022-08-04T18:09:02;101526.00;;;23.64;64.52
10806;BME280;5455;53.224;6.000;2022-08-04T18:12:04;101526.50;;;23.78;64.76
10806;BME280;5455;53.224;6.000;2022-08-04T18:14:45;101534.31;;;23.90;64.66
10806;BME280;5455;53.224;6.000;2022-08-04T18:17:31;101535.38;;;23.96;64.63
10806;BME280;5455;53.224;6.000;2022-08-04T18:20:19;101533.06;;;23.91;64.99
10806;BME280;5455;53.224;6.000;2022-08-04T18:22:48;101537.69;;;24.01;64.55
10806;BME280;5455;53.224;6.000;2022-08-04T18:25:17;101542.03;;;23.86;64.68
10806;BME280;5455;53.224;6.000;2022-08-04T18:27:53;101540.44;;;23.66;65.82
10806;BME280;5455;53.224;6.000;2022-08-04T18:30:24;101546.56;;;23.61;66.45